createdAt,value
2018-06-01T00:00:31.328Z,11.53
2018-06-01T00:14:15.873Z,15.07
2018-06-01T00:16:43.517Z,15.00
2018-06-01T00:19:11.086Z,14.13
2018-06-01T00:30:49.976Z,14.53
2018-06-01T00:33:17.699Z,15.03
2018-06-01T00:35:45.328Z,15.60
2018-06-01T00:47:13.534Z,15.57
2018-06-01T00:49:41.164Z,17.67
2018-06-01T00:52:08.863Z,16.77
2018-06-01T01:03:23.542Z,13.07
2018-06-01T01:05:51.172Z,12.57
2018-06-01T01:08:18.737Z,12.60
2018-06-01T01:10:46.299Z,13.50
2018-06-01T01:37:51.072Z,12.40
2018-06-01T01:40:18.676Z,13.30
2018-06-01T01:42:46.293Z,13.23
2018-06-01T01:45:14.001Z,13.47
2018-06-01T01:56:49.907Z,14.47
2018-06-01T01:59:17.533Z,14.27
2018-06-01T02:01:45.080Z,16.90
2018-06-01T02:13:21.150Z,25.90
2018-06-01T02:15:48.673Z,28.87
2018-06-01T02:18:16.250Z,54.27
2018-06-01T02:29:51.767Z,41.97
2018-06-01T02:32:19.342Z,70.40
2018-06-01T02:34:46.968Z,74.57
2018-06-01T02:46:16.835Z,50.93
2018-06-01T02:48:44.431Z,62.73
2018-06-01T02:51:12.102Z,106.97
2018-06-01T03:02:56.607Z,21.00
2018-06-01T03:05:24.165Z,17.63
2018-06-01T03:07:51.808Z,16.30
2018-06-01T03:10:19.396Z,18.90
2018-06-01T03:21:34.744Z,13.73
2018-06-01T03:24:02.395Z,18.37
2018-06-01T03:26:29.968Z,19.70
2018-06-01T03:40:05.049Z,90.90
2018-06-01T03:42:32.652Z,55.90
2018-06-01T03:45:00.196Z,68.90
2018-06-01T03:56:41.293Z,74.27
2018-06-01T03:59:08.897Z,50.77
2018-06-01T04:01:36.531Z,81.97
2018-06-01T04:13:08.220Z,67.20
2018-06-01T04:15:35.839Z,84.77
2018-06-01T04:18:03.424Z,56.50
2018-06-01T04:29:39.815Z,19.17
2018-06-01T04:32:07.392Z,19.57
2018-06-01T04:34:34.983Z,18.20
2018-06-01T04:37:06.292Z,17.30
2018-06-01T04:48:37.283Z,14.90
2018-06-01T04:51:04.908Z,17.50
2018-06-01T04:53:32.499Z,17.80
2018-06-01T05:05:08.400Z,16.73
2018-06-01T05:07:36.047Z,15.77
2018-06-01T05:10:03.768Z,17.23
2018-06-01T05:21:40.471Z,16.90
2018-06-01T05:24:08.133Z,19.40
2018-06-01T05:26:35.756Z,17.67
2018-06-01T05:38:11.855Z,16.73
2018-06-01T05:40:39.482Z,16.57
2018-06-01T05:43:07.147Z,15.77
2018-06-01T05:54:43.131Z,16.13
2018-06-01T05:57:10.708Z,16.53
2018-06-01T05:59:38.530Z,17.00
2018-06-01T06:02:07.344Z,18.67
2018-06-01T06:13:43.849Z,18.63
2018-06-01T06:16:11.559Z,14.27
2018-06-01T06:18:39.275Z,16.90
2018-06-01T06:30:15.138Z,13.80
2018-06-01T06:32:42.694Z,11.87
2018-06-01T06:35:10.340Z,11.60
2018-06-01T06:44:06.808Z,11.53
2018-06-01T06:46:37.495Z,9.87
2018-06-01T06:49:05.036Z,12.80
2018-06-01T06:51:32.652Z,15.53
2018-06-01T06:54:01.490Z,15.40
2018-06-01T06:56:33.501Z,11.70
2018-06-01T06:59:07.347Z,15.40
2018-06-01T07:01:38.321Z,13.83
2018-06-01T07:04:06.015Z,16.13
2018-06-01T07:06:33.641Z,14.23
2018-06-01T07:09:01.191Z,13.53
2018-06-01T07:11:29.054Z,18.20
2018-06-01T07:13:59.374Z,14.43
2018-06-01T07:16:30.175Z,12.33
2018-06-01T07:21:34.496Z,14.67
2018-06-01T07:24:02.046Z,18.40
2018-06-01T07:26:29.658Z,18.00
2018-06-01T07:29:01.253Z,23.67
2018-06-01T07:31:33.101Z,19.77
2018-06-01T07:34:06.284Z,22.03
2018-06-01T07:36:41.199Z,18.10
2018-06-01T07:39:08.774Z,18.13
2018-06-01T07:41:36.379Z,20.43
2018-06-01T07:44:03.991Z,17.70
2018-06-01T07:46:33.281Z,21.60
2018-06-01T07:49:05.447Z,17.90
2018-06-01T07:51:39.047Z,17.23
2018-06-01T07:54:32.511Z,19.50
2018-06-01T07:57:00.171Z,24.67
2018-06-01T07:59:28.084Z,23.33
2018-06-01T08:01:55.707Z,25.77
2018-06-01T09:23:59.917Z,15.43
2018-06-01T09:57:05.969Z,14.87
2018-06-01T09:59:54.633Z,17.43
2018-06-01T10:35:39.119Z,21.17
2018-06-01T11:05:31.994Z,13.27
2018-06-01T11:41:21.704Z,13.50
2018-06-01T12:14:19.377Z,10.27
2018-06-01T12:28:59.275Z,13.60
2018-06-01T12:35:54.948Z,18.47
2018-06-01T12:47:31.450Z,19.13
2018-06-01T12:49:59.015Z,23.57
2018-06-01T12:52:26.675Z,24.83
2018-06-01T13:04:03.000Z,32.07
2018-06-01T13:06:30.587Z,24.97
2018-06-01T13:08:58.207Z,33.47
2018-06-01T13:23:13.803Z,33.90
2018-06-01T13:25:41.349Z,37.17
2018-06-01T13:37:17.422Z,31.63
2018-06-01T13:39:45.180Z,37.20
2018-06-01T13:42:12.924Z,38.03
2018-06-01T13:44:42.940Z,30.23
2018-06-01T13:56:18.700Z,31.60
2018-06-01T13:58:46.456Z,37.43
2018-06-01T14:01:14.012Z,27.90
2018-06-01T14:12:49.600Z,18.60
2018-06-01T14:15:17.221Z,20.53
2018-06-01T14:17:44.974Z,17.00
2018-06-01T14:29:20.855Z,15.40
2018-06-01T14:31:48.407Z,8.77
2018-06-01T14:34:16.219Z,9.43
2018-06-01T14:45:52.199Z,7.53
2018-06-01T14:51:06.700Z,5.83
2018-06-01T15:02:55.518Z,5.30
2018-06-01T15:05:23.076Z,4.40
2018-06-01T15:07:51.306Z,4.20
2018-06-01T15:10:18.983Z,5.60
2018-06-01T15:21:55.467Z,3.20
2018-06-01T15:24:23.191Z,3.70
2018-06-01T15:26:50.738Z,3.73
2018-06-01T15:34:42.964Z,3.83
2018-06-01T15:37:11.217Z,3.40
2018-06-01T15:39:38.757Z,4.63
2018-06-01T15:42:06.302Z,4.83
2018-06-01T15:44:33.994Z,3.60
2018-06-01T15:47:05.920Z,3.37
2018-06-01T15:56:15.861Z,4.83
2018-06-01T15:58:43.421Z,4.40
2018-06-01T16:01:10.995Z,3.57
2018-06-01T16:03:43.072Z,4.90
2018-06-01T16:11:43.447Z,3.07
2018-06-01T16:14:14.835Z,4.07
2018-06-01T16:16:43.153Z,4.63
2018-06-01T16:19:10.918Z,5.23
2018-06-01T16:27:06.318Z,3.10
2018-06-01T16:29:41.216Z,3.27
2018-06-01T16:32:08.745Z,3.70
2018-06-01T16:34:36.322Z,4.43
2018-06-01T16:37:04.040Z,3.20
2018-06-01T16:43:02.623Z,2.87
2018-06-01T16:48:46.851Z,6.93
2018-06-01T16:51:17.100Z,4.17
2018-06-01T16:53:46.440Z,3.07
2018-06-01T16:59:15.700Z,3.23
2018-06-01T17:04:22.980Z,3.20
2018-06-01T17:06:53.062Z,3.73
2018-06-01T17:09:20.667Z,3.83
2018-06-01T17:21:40.427Z,3.17
2018-06-01T17:26:43.003Z,3.97
2018-06-01T17:40:56.912Z,3.53
2018-06-01T17:43:24.461Z,4.13
2018-06-01T17:45:52.117Z,3.73
2018-06-01T17:57:29.623Z,3.90
2018-06-01T17:59:57.492Z,5.73
2018-06-01T18:02:25.114Z,5.23
2018-06-01T18:14:02.268Z,3.50
2018-06-01T18:16:31.599Z,4.10
2018-06-01T18:18:59.298Z,6.77
2018-06-01T18:30:03.602Z,5.97
2018-06-01T18:32:34.830Z,7.90
2018-06-01T18:35:02.387Z,7.97
2018-06-01T18:37:30.449Z,7.57
2018-06-01T18:48:35.353Z,7.90
2018-06-01T18:51:02.873Z,8.40
2018-06-01T18:53:30.518Z,7.27
2018-06-01T18:59:09.614Z,9.07
2018-06-01T19:57:06.432Z,15.70
2018-06-01T19:59:33.989Z,13.83
2018-06-01T20:02:01.555Z,14.67
2018-06-01T20:04:29.263Z,14.83
2018-06-01T20:06:58.152Z,15.53
2018-06-01T20:09:30.603Z,16.63
2018-06-01T20:12:17.844Z,16.90
2018-06-01T20:17:31.487Z,15.43
2018-06-01T20:19:59.039Z,14.07
2018-06-01T20:22:26.834Z,15.70
2018-06-01T20:24:55.201Z,13.50
2018-06-01T20:27:37.431Z,14.23
2018-06-01T20:30:07.779Z,16.50
2018-06-01T20:32:36.369Z,15.67
2018-06-01T20:35:03.969Z,19.13
2018-06-01T20:37:31.582Z,16.50
2018-06-01T20:39:59.303Z,14.47
2018-06-01T20:42:31.480Z,18.60
2018-06-01T20:44:59.828Z,18.57
2018-06-01T20:47:30.773Z,16.70
2018-06-01T20:49:58.340Z,20.97
2018-06-01T20:52:25.863Z,13.17
2018-06-01T20:54:54.302Z,15.57
2018-06-01T20:57:22.862Z,14.23
2018-06-01T20:59:53.799Z,13.37
2018-06-01T21:02:31.453Z,12.27
2018-06-01T21:04:59.673Z,14.63
2018-06-01T21:07:27.349Z,13.37
2018-06-01T21:09:54.855Z,12.53
2018-06-01T21:12:22.579Z,12.50
2018-06-01T21:14:51.444Z,12.87
2018-06-01T21:17:22.027Z,10.20
2018-06-01T21:19:54.280Z,8.40
2018-06-01T21:22:22.959Z,9.23
2018-06-01T21:24:50.587Z,9.13
2018-06-01T21:27:18.134Z,12.43
2018-06-01T21:29:45.738Z,9.13
2018-06-01T21:32:14.140Z,12.57
2018-06-01T21:34:46.459Z,12.17
2018-06-01T21:37:19.708Z,12.00
2018-06-01T21:42:34.183Z,12.30
2018-06-01T21:45:01.728Z,11.77
2018-06-01T21:47:29.340Z,12.93
2018-06-01T21:49:59.045Z,11.53
2018-06-01T21:52:38.819Z,15.10
2018-06-01T21:55:08.926Z,11.63
2018-06-01T22:00:32.707Z,13.30
2018-06-01T22:03:00.313Z,15.23
2018-06-01T22:05:27.942Z,17.57
2018-06-01T22:07:55.551Z,14.13
2018-06-01T22:10:25.883Z,15.10
2018-06-01T22:12:55.760Z,17.37
2018-06-01T22:18:26.252Z,18.70
2018-06-01T22:20:53.920Z,20.60
2018-06-01T22:23:24.286Z,19.47
2018-06-01T22:25:53.625Z,18.53
2018-06-01T22:28:23.678Z,19.63
2018-06-01T22:30:51.432Z,20.23
2018-06-01T22:33:20.880Z,23.43
2018-06-01T22:35:48.473Z,18.20
2018-06-01T22:38:16.600Z,18.27
2018-06-01T22:40:44.233Z,19.50
2018-06-01T22:43:11.862Z,23.83
2018-06-01T22:45:40.895Z,20.07
2018-06-01T22:48:08.570Z,21.00
2018-06-01T22:50:36.155Z,18.27
2018-06-01T22:53:03.755Z,21.37
2018-06-01T22:55:31.433Z,17.03
2018-06-01T22:57:59.011Z,19.47
2018-06-01T23:00:30.719Z,17.90
2018-06-01T23:03:00.245Z,15.20
2018-06-01T23:05:27.945Z,16.23
2018-06-01T23:07:55.619Z,12.40
2018-06-01T23:10:23.207Z,13.83
2018-06-01T23:12:50.770Z,18.47
2018-06-01T23:15:18.366Z,14.40
2018-06-01T23:17:47.121Z,15.27
2018-06-01T23:20:15.531Z,13.83
2018-06-01T23:22:43.235Z,12.30
2018-06-01T23:25:10.856Z,12.73
2018-06-01T23:27:38.376Z,13.47
2018-06-01T23:30:06.011Z,11.87
2018-06-01T23:32:33.629Z,14.93
2018-06-01T23:35:01.875Z,11.53
2018-06-01T23:37:30.476Z,13.50
2018-06-01T23:39:58.105Z,10.73
2018-06-01T23:42:25.677Z,12.27
2018-06-01T23:44:53.286Z,14.90
2018-06-01T23:47:20.851Z,13.27
2018-06-01T23:49:48.464Z,12.83
2018-06-01T23:52:16.302Z,13.73
2018-06-01T23:54:44.001Z,10.63
2018-06-01T23:57:11.595Z,11.07
2018-06-01T23:59:39.131Z,11.63
